Time;durP1;ratioP1;P1;durP2;ratioP2;P2;SDS_P1;SDS_P2;PMS_P1;PMS_P2;Temp;Humidity;BMP_temperature;BMP_pressure;BME280_temperature;BME280_humidity;BME280_pressure;Samples;Min_cycle;Max_cycle;Signal;HPM_P1;HPM_P2
2023/12/17 00:01:06;;;;;;;5.03;4.60;;;17.90;70.30;;;;;;5046348;28;20494;-76
2023/12/17 00:03:34;;;;;;;5.43;4.27;;;17.90;70.20;;;;;;5053519;28;20442;-77
2023/12/17 00:06:02;;;;;;;4.13;3.83;;;17.90;70.50;;;;;;5052617;28;20554;-76
2023/12/17 00:08:31;;;;;;;4.57;4.27;;;17.90;70.20;;;;;;5049661;28;20455;-77
2023/12/17 00:10:59;;;;;;;4.67;4.20;;;17.90;70.30;;;;;;5052020;28;20529;-77
2023/12/17 00:13:27;;;;;;;5.53;4.63;;;17.90;70.50;;;;;;5044487;28;20535;-77
2023/12/17 00:15:55;;;;;;;4.70;4.03;;;17.90;70.40;;;;;;5046283;28;20475;-75
2023/12/17 00:18:23;;;;;;;4.03;3.63;;;17.90;70.20;;;;;;5051135;28;20439;-76
2023/12/17 00:20:51;;;;;;;5.80;3.57;;;17.90;70.20;;;;;;5051422;28;20511;-76
2023/12/17 00:23:19;;;;;;;4.13;3.83;;;17.90;70.20;;;;;;5051312;28;20431;-77
2023/12/17 00:25:48;;;;;;;3.60;3.30;;;17.90;70.20;;;;;;5048723;28;20482;-76
2023/12/17 00:28:16;;;;;;;4.10;3.80;;;17.90;70.20;;;;;;5051900;28;20469;-75
2023/12/17 00:30:45;;;;;;;4.73;3.50;;;18.00;70.30;;;;;;5046456;28;20529;-75
2023/12/17 00:33:13;;;;;;;3.93;3.60;;;18.00;70.20;;;;;;5048361;28;20492;-74
2023/12/17 00:35:41;;;;;;;3.90;3.50;;;18.00;70.10;;;;;;5044230;28;20460;-74
2023/12/17 00:38:08;;;;;;;3.57;3.27;;;18.00;70.20;;;;;;5036016;28;20446;-76
2023/12/17 00:40:36;;;;;;;5.20;2.97;;;18.00;70.20;;;;;;5047527;28;20530;-75
2023/12/17 00:43:05;;;;;;;4.57;3.40;;;18.00;70.10;;;;;;5042481;28;20431;-75
2023/12/17 00:45:33;;;;;;;3.20;3.00;;;18.00;70.00;;;;;;5046841;28;20551;-76
2023/12/17 00:48:01;;;;;;;3.53;3.30;;;18.00;70.30;;;;;;5041506;28;20458;-75
2023/12/17 00:50:29;;;;;;;3.30;3.10;;;17.90;70.20;;;;;;5049882;28;20471;-75
2023/12/17 00:52:57;;;;;;;5.40;3.43;;;18.00;70.10;;;;;;5055756;28;20470;-75
2023/12/17 00:55:25;;;;;;;3.93;2.90;;;18.00;70.20;;;;;;5044322;28;20508;-76
2023/12/17 00:57:53;;;;;;;3.80;3.30;;;18.00;70.10;;;;;;5054195;28;20456;-75
2023/12/17 01:00:22;;;;;;;3.60;3.30;;;17.90;70.10;;;;;;5045076;28;20534;-75
2023/12/17 01:02:51;;;;;;;3.47;3.03;;;18.00;70.30;;;;;;5046539;28;20448;-75
2023/12/17 01:05:19;;;;;;;3.70;3.30;;;18.00;70.30;;;;;;5046084;28;20852;-75
2023/12/17 01:07:46;;;;;;;3.33;3.13;;;18.00;70.00;;;;;;5042417;28;20450;-75
2023/12/17 01:10:14;;;;;;;3.40;3.20;;;18.00;70.00;;;;;;5048451;28;20533;-75
2023/12/17 01:12:42;;;;;;;3.33;3.13;;;18.00;70.00;;;;;;5050505;28;20478;-75
2023/12/17 01:15:12;;;;;;;4.07;2.60;;;18.00;70.00;;;;;;5038840;28;20501;-77
2023/12/17 01:17:41;;;;;;;4.00;2.80;;;18.00;70.10;;;;;;5045562;28;20454;-77
2023/12/17 01:20:10;;;;;;;3.73;2.73;;;18.00;70.10;;;;;;5044690;28;20510;-76
2023/12/17 01:22:38;;;;;;;3.40;3.10;;;18.00;70.10;;;;;;5050431;28;20506;-77
2023/12/17 01:25:07;;;;;;;3.10;2.80;;;18.00;70.10;;;;;;5050806;28;20470;-77
2023/12/17 01:27:35;;;;;;;5.33;2.70;;;18.00;70.20;;;;;;5048688;28;20508;-77
2023/12/17 01:30:03;;;;;;;4.10;3.17;;;18.00;69.80;;;;;;5049525;28;20443;-76
2023/12/17 01:32:30;;;;;;;3.20;3.00;;;18.00;70.00;;;;;;5047405;28;20882;-75
2023/12/17 01:35:00;;;;;;;3.33;3.10;;;18.00;70.00;;;;;;5049127;28;20462;-76
2023/12/17 01:37:28;;;;;;;3.13;2.83;;;18.00;69.90;;;;;;5056994;28;20466;-76
2023/12/17 01:39:56;;;;;;;4.53;3.30;;;18.00;70.00;;;;;;5040439;28;20941;-76
2023/12/17 01:42:24;;;;;;;2.83;2.60;;;18.00;69.90;;;;;;5043913;28;20463;-77
2023/12/17 01:44:52;;;;;;;2.80;2.60;;;18.00;70.00;;;;;;5051247;28;20458;-77
2023/12/17 01:47:20;;;;;;;3.00;2.67;;;18.00;69.60;;;;;;5053386;28;20450;-77
2023/12/17 01:49:48;;;;;;;4.90;2.60;;;18.00;69.90;;;;;;5054889;28;20446;-76
2023/12/17 01:52:18;;;;;;;2.67;2.50;;;18.00;69.90;;;;;;5052282;28;20479;-76
2023/12/17 01:54:46;;;;;;;3.03;2.83;;;18.00;70.00;;;;;;5049278;28;20556;-76
2023/12/17 01:57:14;;;;;;;2.97;2.67;;;18.00;69.90;;;;;;5046673;28;20482;-76
2023/12/17 01:59:42;;;;;;;3.53;2.60;;;18.00;70.20;;;;;;5048675;28;20458;-75
2023/12/17 02:02:11;;;;;;;3.90;2.67;;;18.00;70.00;;;;;;5041856;28;20446;-76
2023/12/17 02:04:39;;;;;;;3.50;2.20;;;18.00;70.00;;;;;;5047673;28;20562;-76
2023/12/17 02:07:07;;;;;;;3.60;2.70;;;18.00;70.10;;;;;;5042745;28;20431;-76
2023/12/17 02:09:36;;;;;;;3.83;2.67;;;18.00;70.00;;;;;;5034876;28;20430;-76
2023/12/17 02:12:05;;;;;;;2.40;2.30;;;18.00;70.10;;;;;;5036039;28;20435;-76
2023/12/17 02:14:32;;;;;;;2.40;2.20;;;18.00;70.20;;;;;;5048355;28;20455;-76
2023/12/17 02:17:00;;;;;;;2.93;2.70;;;18.00;70.20;;;;;;5044522;28;20462;-76
2023/12/17 02:19:28;;;;;;;2.60;2.40;;;18.00;69.90;;;;;;5048570;28;20937;-75
2023/12/17 02:21:56;;;;;;;2.50;2.30;;;18.00;69.90;;;;;;5047298;28;20445;-76
2023/12/17 02:24:25;;;;;;;2.40;2.30;;;18.00;70.00;;;;;;5052457;28;20485;-76
2023/12/17 02:26:53;;;;;;;2.20;2.10;;;18.00;70.10;;;;;;5054568;28;20442;-76
2023/12/17 02:29:21;;;;;;;2.70;2.50;;;18.00;70.00;;;;;;5050369;28;20468;-76
2023/12/17 02:31:49;;;;;;;3.10;2.60;;;18.00;69.90;;;;;;5046383;28;20477;-77
2023/12/17 02:34:17;;;;;;;2.50;2.30;;;18.00;70.10;;;;;;5042385;28;20546;-77
2023/12/17 02:36:46;;;;;;;2.63;2.43;;;18.00;70.10;;;;;;5053650;28;20444;-76
2023/12/17 02:39:14;;;;;;;2.70;2.60;;;18.00;69.90;;;;;;5054117;28;20533;-77
2023/12/17 02:41:43;;;;;;;2.67;2.13;;;18.00;70.00;;;;;;5054232;28;20817;-77
2023/12/17 02:44:11;;;;;;;2.60;2.40;;;18.00;70.10;;;;;;5056672;28;20462;-76
2023/12/17 02:46:39;;;;;;;2.73;2.37;;;18.00;70.20;;;;;;5058986;28;20476;-77
2023/12/17 02:49:07;;;;;;;2.80;2.60;;;18.00;70.10;;;;;;5055946;28;20524;-77
2023/12/17 02:51:35;;;;;;;2.30;2.20;;;18.00;70.00;;;;;;5049844;28;20539;-76
2023/12/17 02:54:03;;;;;;;2.70;2.37;;;18.00;70.30;;;;;;5051019;28;20493;-76
2023/12/17 02:56:31;;;;;;;2.10;2.00;;;18.00;70.20;;;;;;5059578;28;20952;-76
2023/12/17 02:59:00;;;;;;;2.73;2.50;;;18.00;70.10;;;;;;5057238;28;20537;-76
2023/12/17 03:01:30;;;;;;;5.20;2.60;;;18.00;70.20;;;;;;5043545;28;20447;-76
2023/12/17 03:03:58;;;;;;;2.20;2.10;;;18.00;70.20;;;;;;5049103;28;20506;-76
2023/12/17 03:06:26;;;;;;;2.50;2.30;;;18.00;70.20;;;;;;5048968;28;20435;-76
2023/12/17 03:08:54;;;;;;;5.47;2.20;;;18.00;70.00;;;;;;5056616;28;20443;-77
2023/12/17 03:11:22;;;;;;;2.10;2.00;;;18.00;70.00;;;;;;5049307;28;20459;-76
2023/12/17 03:13:50;;;;;;;3.07;2.70;;;18.00;70.00;;;;;;5059075;28;20500;-76
2023/12/17 03:16:20;;;;;;;2.20;2.00;;;18.00;70.20;;;;;;5052450;28;20434;-76
2023/12/17 03:18:48;;;;;;;4.83;2.53;;;18.00;70.00;;;;;;5052038;28;20489;-77
2023/12/17 03:21:16;;;;;;;2.47;2.27;;;18.00;69.90;;;;;;5037533;28;20450;-76
2023/12/17 03:23:44;;;;;;;2.50;2.30;;;18.00;70.20;;;;;;5033937;28;20446;-76
2023/12/17 03:26:12;;;;;;;2.20;2.07;;;18.00;70.20;;;;;;5033884;28;20463;-76
2023/12/17 03:28:40;;;;;;;2.47;2.37;;;18.00;70.00;;;;;;5038367;28;20482;-77
2023/12/17 03:31:08;;;;;;;2.60;2.40;;;18.00;70.20;;;;;;5053948;28;20497;-76
2023/12/17 03:33:37;;;;;;;2.20;2.10;;;18.00;70.00;;;;;;5053515;28;20481;-77
2023/12/17 03:36:07;;;;;;;2.53;2.10;;;18.00;69.90;;;;;;5057820;28;20477;-77
2023/12/17 03:38:36;;;;;;;2.50;2.30;;;18.00;70.20;;;;;;5056900;28;20475;-77
2023/12/17 03:41:05;;;;;;;2.50;2.30;;;18.00;70.20;;;;;;5055751;28;20510;-77
2023/12/17 03:43:32;;;;;;;2.20;2.10;;;18.00;70.00;;;;;;5054881;28;20470;-77
2023/12/17 03:46:01;;;;;;;4.03;2.30;;;18.00;70.00;;;;;;5054485;28;20462;-77
2023/12/17 03:48:29;;;;;;;2.60;2.50;;;18.00;70.00;;;;;;5054202;28;20450;-77
2023/12/17 03:50:58;;;;;;;2.20;2.10;;;18.00;70.00;;;;;;5054818;28;20454;-77
2023/12/17 03:53:26;;;;;;;2.63;2.50;;;18.00;70.00;;;;;;5049501;28;20553;-77
2023/12/17 03:55:55;;;;;;;1.83;1.73;;;18.00;70.10;;;;;;5067187;28;20482;-76
2023/12/17 03:58:24;;;;;;;3.63;2.07;;;18.00;69.90;;;;;;5062401;28;20446;-77
2023/12/17 04:00:52;;;;;;;2.57;2.00;;;18.00;70.30;;;;;;5048087;28;20461;-78
2023/12/17 04:03:20;;;;;;;3.43;2.20;;;18.00;70.00;;;;;;5055607;28;20446;-77
2023/12/17 04:05:48;;;;;;;2.30;2.10;;;18.00;69.90;;;;;;5045590;28;20554;-77
2023/12/17 04:08:18;;;;;;;2.20;2.10;;;18.10;70.10;;;;;;5052687;28;20884;-77
2023/12/17 04:10:45;;;;;;;2.27;2.10;;;18.10;70.10;;;;;;5046891;28;20507;-77
2023/12/17 04:13:13;;;;;;;2.10;2.00;;;18.00;69.90;;;;;;5053592;28;20510;-77
2023/12/17 04:15:41;;;;;;;2.10;2.00;;;18.00;69.90;;;;;;5052494;28;20522;-78
2023/12/17 04:18:09;;;;;;;3.20;2.37;;;18.10;69.90;;;;;;5053457;28;20522;-78
2023/12/17 04:20:37;;;;;;;2.20;2.10;;;18.00;70.00;;;;;;5054595;28;20544;-77
2023/12/17 04:23:05;;;;;;;2.17;2.07;;;18.10;70.00;;;;;;5041156;28;20482;-77
2023/12/17 04:25:35;;;;;;;2.23;2.13;;;18.00;70.20;;;;;;5052821;28;20485;-77
2023/12/17 04:28:03;;;;;;;1.93;1.83;;;18.10;70.00;;;;;;5052909;28;20466;-78
2023/12/17 04:30:31;;;;;;;2.20;2.10;;;18.00;69.90;;;;;;5055709;28;20533;-78
2023/12/17 04:32:59;;;;;;;2.40;2.30;;;18.10;70.10;;;;;;5048763;28;20447;-78
2023/12/17 04:35:27;;;;;;;1.70;1.60;;;18.10;69.80;;;;;;5054829;28;20481;-78
2023/12/17 04:37:55;;;;;;;2.50;2.40;;;18.00;70.00;;;;;;5050911;28;20494;-78
2023/12/17 04:40:23;;;;;;;2.37;2.23;;;18.10;70.00;;;;;;5049248;28;20434;-77
2023/12/17 04:42:52;;;;;;;2.30;1.90;;;18.10;70.00;;;;;;5036807;28;20438;-78
2023/12/17 04:45:20;;;;;;;2.40;2.23;;;18.10;70.00;;;;;;5034573;28;20545;-78
2023/12/17 04:47:48;;;;;;;2.37;2.27;;;18.10;70.00;;;;;;5044716;28;20522;-77
2023/12/17 04:50:16;;;;;;;2.73;2.53;;;18.00;69.90;;;;;;5053973;28;20439;-78
2023/12/17 04:52:44;;;;;;;2.10;2.00;;;18.10;70.10;;;;;;5047778;28;20541;-77
2023/12/17 04:55:12;;;;;;;2.17;2.07;;;18.10;70.00;;;;;;5054775;28;20533;-78
2023/12/17 04:57:40;;;;;;;2.63;2.43;;;18.10;69.90;;;;;;5044398;28;20486;-78
2023/12/17 05:00:11;;;;;;;2.50;2.40;;;18.10;69.90;;;;;;5074583;28;20451;-77
2023/12/17 05:02:40;;;;;;;4.03;2.43;;;18.10;70.00;;;;;;5063375;28;20446;-77
2023/12/17 05:05:08;;;;;;;2.57;2.47;;;18.10;70.00;;;;;;5063820;28;21028;-77
2023/12/17 05:07:36;;;;;;;2.93;2.57;;;18.10;69.90;;;;;;5050991;28;20509;-77
2023/12/17 05:10:07;;;;;;;2.80;2.60;;;18.00;69.80;;;;;;5048079;28;20454;-77
2023/12/17 05:12:34;;;;;;;3.23;2.70;;;18.10;69.90;;;;;;5050212;28;20553;-77
2023/12/17 05:15:03;;;;;;;3.33;2.93;;;18.00;70.00;;;;;;5043925;28;20474;-77
2023/12/17 05:17:32;;;;;;;3.37;2.83;;;18.10;69.90;;;;;;5045376;28;20525;-77
2023/12/17 05:20:01;;;;;;;3.50;2.93;;;18.10;69.80;;;;;;5050071;28;20530;-77
2023/12/17 05:22:28;;;;;;;3.17;2.97;;;18.10;70.00;;;;;;5045233;28;20517;-77
2023/12/17 05:24:56;;;;;;;4.07;3.30;;;18.00;69.90;;;;;;5049788;28;20454;-77
2023/12/17 05:27:24;;;;;;;4.60;3.60;;;18.00;70.00;;;;;;5048720;28;20463;-77
2023/12/17 05:29:52;;;;;;;4.40;3.47;;;18.10;70.00;;;;;;5053261;28;20488;-77
2023/12/17 05:32:20;;;;;;;4.00;3.50;;;18.10;70.00;;;;;;5060136;28;20437;-76
2023/12/17 05:34:49;;;;;;;3.97;3.70;;;18.10;69.90;;;;;;5049566;28;20470;-77
2023/12/17 05:37:17;;;;;;;3.70;3.40;;;18.10;69.80;;;;;;5031189;28;20443;-77
2023/12/17 05:39:45;;;;;;;3.70;3.40;;;18.10;70.00;;;;;;5041199;28;20525;-77
2023/12/17 05:42:13;;;;;;;3.50;3.20;;;18.10;69.60;;;;;;5046570;28;20458;-77
2023/12/17 05:44:41;;;;;;;3.37;3.10;;;18.10;70.20;;;;;;5043326;28;20537;-76
2023/12/17 05:47:10;;;;;;;6.13;2.90;;;18.10;69.70;;;;;;5044222;28;20470;-76
2023/12/17 05:49:38;;;;;;;5.67;3.70;;;18.10;69.90;;;;;;5047142;28;21024;-76
2023/12/17 05:52:08;;;;;;;4.83;3.80;;;18.10;70.00;;;;;;5051154;28;20470;-77
2023/12/17 05:54:38;;;;;;;4.20;3.90;;;18.10;69.80;;;;;;5051600;28;20571;-77
2023/12/17 05:57:06;;;;;;;3.83;3.47;;;18.10;69.70;;;;;;5049736;28;20865;-77
2023/12/17 05:59:35;;;;;;;6.13;3.90;;;18.10;69.70;;;;;;5053778;28;20526;-76
2023/12/17 06:02:02;;;;;;;3.67;3.37;;;18.10;69.90;;;;;;5038480;28;20451;-77
2023/12/17 06:04:31;;;;;;;4.33;3.40;;;18.10;70.00;;;;;;5052012;28;20458;-77
2023/12/17 06:06:58;;;;;;;4.80;3.57;;;18.10;69.90;;;;;;5049067;28;21025;-77
2023/12/17 06:09:28;;;;;;;3.63;3.37;;;18.10;69.90;;;;;;5055023;28;20489;-77
2023/12/17 06:11:57;;;;;;;5.73;3.50;;;18.10;69.90;;;;;;5054355;28;20521;-77
2023/12/17 06:14:25;;;;;;;3.20;2.90;;;18.10;70.20;;;;;;5051191;28;20458;-77
2023/12/17 06:16:53;;;;;;;3.70;3.37;;;18.10;69.60;;;;;;5043632;28;20435;-78
2023/12/17 06:19:21;;;;;;;3.40;3.10;;;18.10;69.90;;;;;;5050662;28;20443;-77
2023/12/17 06:21:49;;;;;;;4.20;3.67;;;18.10;70.00;;;;;;5052417;28;20470;-78
2023/12/17 06:24:17;;;;;;;3.90;3.60;;;18.10;69.80;;;;;;5053038;28;20454;-78
2023/12/17 06:26:46;;;;;;;3.50;3.20;;;18.10;69.70;;;;;;5050556;28;20439;-78
2023/12/17 06:29:14;;;;;;;3.17;2.97;;;18.10;69.80;;;;;;5061218;28;20434;-78
2023/12/17 06:31:42;;;;;;;4.57;3.40;;;18.10;69.50;;;;;;5056686;28;20464;-76
2023/12/17 06:34:10;;;;;;;4.30;3.50;;;18.10;70.00;;;;;;5040305;28;20496;-76
2023/12/17 06:36:38;;;;;;;3.90;3.60;;;18.10;70.00;;;;;;5053914;28;20531;-77
2023/12/17 06:39:09;;;;;;;7.87;4.23;;;18.10;69.80;;;;;;5053586;28;20796;-76
2023/12/17 06:41:37;;;;;;;3.13;2.93;;;18.10;69.70;;;;;;5048098;28;20463;-77
2023/12/17 06:44:07;;;;;;;3.50;3.20;;;18.10;70.00;;;;;;5049087;28;20466;-76
2023/12/17 06:46:34;;;;;;;4.00;3.60;;;18.10;69.90;;;;;;5053775;28;20504;-77
2023/12/17 06:49:03;;;;;;;4.80;3.60;;;18.10;69.80;;;;;;5053576;28;20441;-76
2023/12/17 06:51:31;;;;;;;3.60;3.30;;;18.10;69.80;;;;;;5050162;28;20481;-76
2023/12/17 06:53:59;;;;;;;4.03;3.20;;;18.10;69.60;;;;;;5043860;28;20441;-76
2023/12/17 06:56:27;;;;;;;7.33;3.63;;;18.10;69.80;;;;;;5037484;28;20471;-76
2023/12/17 06:58:55;;;;;;;3.90;3.40;;;18.10;70.50;;;;;;5048984;28;20474;-76
2023/12/17 07:01:25;;;;;;;3.33;3.00;;;18.10;69.90;;;;;;5064062;28;20461;-76
2023/12/17 07:03:53;;;;;;;3.23;2.93;;;18.10;69.70;;;;;;5065596;28;20435;-77
2023/12/17 07:06:23;;;;;;;3.03;2.83;;;18.10;69.80;;;;;;5054437;28;20432;-76
2023/12/17 07:08:52;;;;;;;3.30;2.73;;;18.10;69.70;;;;;;5053367;28;20450;-76
2023/12/17 07:11:20;;;;;;;3.40;3.20;;;18.10;69.90;;;;;;5054086;28;20439;-78
2023/12/17 07:13:50;;;;;;;3.03;2.83;;;18.10;69.80;;;;;;5047613;28;20439;-77
2023/12/17 07:16:22;;;;;;;3.10;2.90;;;18.10;69.80;;;;;;5052288;28;20560;-75
2023/12/17 07:18:52;;;;;;;3.10;2.90;;;18.20;69.90;;;;;;5051868;28;20498;-77
2023/12/17 07:21:21;;;;;;;4.33;3.30;;;18.20;70.00;;;;;;5062557;28;20474;-78
2023/12/17 07:23:51;;;;;;;2.90;2.70;;;18.20;69.70;;;;;;5046112;28;20476;-77
2023/12/17 07:26:21;;;;;;;2.77;2.67;;;18.20;69.90;;;;;;5049710;28;20449;-77
2023/12/17 07:28:50;;;;;;;2.93;2.70;;;18.20;70.00;;;;;;5056433;28;20450;-77
2023/12/17 07:31:18;;;;;;;3.00;2.80;;;18.20;69.90;;;;;;5051309;28;20509;-77
2023/12/17 07:33:46;;;;;;;5.07;3.30;;;18.20;70.00;;;;;;5056570;28;20447;-77
2023/12/17 07:36:16;;;;;;;2.90;2.70;;;18.20;69.80;;;;;;5053842;28;20569;-76
2023/12/17 07:38:44;;;;;;;4.00;3.07;;;18.20;69.70;;;;;;5053304;28;20438;-77
2023/12/17 07:41:12;;;;;;;3.00;2.80;;;18.20;69.70;;;;;;5038263;28;20454;-77
2023/12/17 07:43:44;;;;;;;3.47;3.17;;;18.20;69.90;;;;;;5055258;28;20462;-77
2023/12/17 07:46:12;;;;;;;3.30;3.00;;;18.20;69.80;;;;;;5060036;28;20543;-78
2023/12/17 07:48:41;;;;;;;3.40;3.10;;;18.20;69.70;;;;;;5047046;28;20439;-78
2023/12/17 07:51:09;;;;;;;3.23;3.03;;;18.20;69.70;;;;;;5063954;28;20447;-78
2023/12/17 07:53:39;;;;;;;3.20;2.90;;;18.20;69.80;;;;;;5051434;28;20454;-76
2023/12/17 07:56:09;;;;;;;3.47;3.17;;;18.20;69.80;;;;;;5049668;28;20478;-78
2023/12/17 07:58:37;;;;;;;3.47;3.13;;;18.20;69.50;;;;;;5036898;28;20461;-78
2023/12/17 08:01:05;;;;;;;3.13;2.83;;;18.20;69.70;;;;;;5055815;28;20458;-77
2023/12/17 08:03:34;;;;;;;3.27;2.77;;;18.20;69.90;;;;;;5056743;28;20413;-77
2023/12/17 08:06:02;;;;;;;2.63;2.43;;;18.30;69.70;;;;;;5046244;28;20518;-77
2023/12/17 08:08:31;;;;;;;2.87;2.67;;;18.20;69.40;;;;;;5058609;28;20435;-77
2023/12/17 08:11:01;;;;;;;5.90;2.67;;;18.20;69.50;;;;;;5053685;28;20472;-77
2023/12/17 08:13:29;;;;;;;3.43;2.67;;;18.20;69.50;;;;;;5055132;28;20474;-77
2023/12/17 08:15:58;;;;;;;2.40;2.30;;;18.20;69.50;;;;;;5053121;28;20524;-75
2023/12/17 08:18:26;;;;;;;4.63;2.60;;;18.20;69.60;;;;;;5051424;28;20538;-76
2023/12/17 08:20:54;;;;;;;3.00;2.80;;;18.30;69.60;;;;;;5052458;28;20443;-76
2023/12/17 08:23:23;;;;;;;3.60;2.87;;;18.30;69.70;;;;;;5036035;28;20526;-78
2023/12/17 08:25:52;;;;;;;2.90;2.60;;;18.30;69.80;;;;;;5038151;28;20470;-77
2023/12/17 08:28:21;;;;;;;3.77;2.87;;;18.30;69.60;;;;;;5044507;28;20474;-77
2023/12/17 08:30:49;;;;;;;2.93;2.50;;;18.30;69.80;;;;;;5052071;28;20461;-76
2023/12/17 08:33:17;;;;;;;2.40;2.20;;;18.30;69.50;;;;;;5050801;28;20520;-75
2023/12/17 08:35:46;;;;;;;2.80;2.60;;;18.30;69.60;;;;;;5047317;28;20545;-75
2023/12/17 08:38:15;;;;;;;2.43;2.20;;;18.30;69.60;;;;;;5040870;28;20459;-76
2023/12/17 08:40:42;;;;;;;3.00;2.80;;;18.30;69.80;;;;;;5051562;28;20451;-75
2023/12/17 08:43:11;;;;;;;6.53;2.80;;;18.30;69.50;;;;;;5051154;28;20525;-76
2023/12/17 08:45:41;;;;;;;6.43;2.67;;;18.30;69.20;;;;;;5048485;28;20486;-77
2023/12/17 08:48:08;;;;;;;2.90;2.70;;;18.30;69.50;;;;;;5043093;28;20530;-76
2023/12/17 08:50:36;;;;;;;2.77;2.60;;;18.30;69.50;;;;;;5050546;28;20529;-76
2023/12/17 08:53:04;;;;;;;3.50;3.00;;;18.40;70.30;;;;;;5051062;28;20517;-76
2023/12/17 08:55:32;;;;;;;3.03;2.70;;;18.30;69.70;;;;;;5048475;28;20561;-76
2023/12/17 08:58:00;;;;;;;3.00;2.80;;;18.40;69.50;;;;;;5049415;28;20510;-76
2023/12/17 09:00:28;;;;;;;3.23;2.73;;;18.40;69.60;;;;;;5040256;28;20471;-76
2023/12/17 09:02:57;;;;;;;2.50;2.30;;;18.40;69.50;;;;;;5046217;28;20439;-76
2023/12/17 09:05:25;;;;;;;2.43;2.33;;;18.40;69.50;;;;;;5048697;28;20474;-76
2023/12/17 09:07:53;;;;;;;2.90;2.70;;;18.40;69.40;;;;;;5046287;28;20430;-77
2023/12/17 09:10:23;;;;;;;3.03;2.70;;;18.40;69.00;;;;;;5046547;28;20436;-76
2023/12/17 09:12:51;;;;;;;2.77;2.60;;;18.40;69.50;;;;;;5048818;28;20477;-76
2023/12/17 09:15:19;;;;;;;4.30;2.37;;;18.40;69.40;;;;;;5045293;28;20580;-76
2023/12/17 09:17:47;;;;;;;2.83;2.63;;;18.40;69.40;;;;;;5044463;28;20554;-77
2023/12/17 09:20:17;;;;;;;3.40;3.00;;;18.40;69.30;;;;;;5043085;28;20451;-77
2023/12/17 09:22:45;;;;;;;3.37;2.50;;;18.40;69.20;;;;;;5057191;28;20465;-76
2023/12/17 09:25:13;;;;;;;2.70;2.50;;;18.40;69.30;;;;;;5058083;28;20466;-77
2023/12/17 09:27:41;;;;;;;3.20;3.00;;;18.50;69.30;;;;;;5051670;28;20439;-77
2023/12/17 09:30:10;;;;;;;2.70;2.50;;;18.50;68.90;;;;;;5051435;28;20439;-76
2023/12/17 09:32:38;;;;;;;5.13;2.97;;;18.50;69.40;;;;;;5058639;28;20435;-78
2023/12/17 09:35:10;;;;;;;8.17;2.70;;;18.50;69.20;;;;;;5052019;28;20458;-76
2023/12/17 09:37:39;;;;;;;2.20;2.10;;;18.50;69.20;;;;;;5046289;28;20555;-78
2023/12/17 09:40:09;;;;;;;2.63;2.43;;;18.50;69.20;;;;;;5054524;28;20435;-77
2023/12/17 09:42:37;;;;;;;2.87;2.60;;;18.50;69.20;;;;;;5051700;28;20477;-77
2023/12/17 09:45:06;;;;;;;3.73;2.43;;;18.50;69.30;;;;;;5047645;28;20466;-77
2023/12/17 09:47:35;;;;;;;2.93;2.60;;;18.50;69.10;;;;;;5053945;28;20447;-77
2023/12/17 09:50:03;;;;;;;2.30;2.20;;;18.60;69.10;;;;;;5055042;28;20450;-76
2023/12/17 09:52:31;;;;;;;2.70;2.50;;;18.60;69.20;;;;;;5055157;28;20427;-77
2023/12/17 09:55:03;;;;;;;2.37;2.10;;;18.60;69.10;;;;;;5055835;28;20528;-77
2023/12/17 09:57:33;;;;;;;2.40;2.20;;;18.60;68.70;;;;;;5050575;28;20471;-77
2023/12/17 10:00:02;;;;;;;2.73;2.53;;;18.60;68.70;;;;;;5052179;28;20458;-77
2023/12/17 10:02:30;;;;;;;4.90;2.30;;;18.70;69.00;;;;;;5046519;28;20474;-77
2023/12/17 10:05:07;;;;;;;3.47;2.70;;;18.70;68.90;;;;;;5059006;28;20489;-77
2023/12/17 10:07:37;;;;;;;2.80;2.50;;;18.70;68.60;;;;;;5065432;28;20504;-77
2023/12/17 10:10:09;;;;;;;2.00;1.90;;;18.80;68.70;;;;;;5056915;28;20449;-77
2023/12/17 10:12:38;;;;;;;2.63;2.43;;;18.80;68.50;;;;;;5070330;28;20484;-76
2023/12/17 10:15:08;;;;;;;2.83;2.63;;;18.80;68.50;;;;;;5059773;28;20482;-75
2023/12/17 10:17:37;;;;;;;2.77;2.47;;;18.90;68.30;;;;;;5052888;28;20478;-76
2023/12/17 10:20:07;;;;;;;3.53;2.60;;;18.90;68.30;;;;;;5054341;28;20444;-76
2023/12/17 10:22:35;;;;;;;2.23;2.13;;;18.90;68.10;;;;;;5051503;28;20454;-76
2023/12/17 10:25:04;;;;;;;2.67;2.47;;;18.90;68.20;;;;;;5058667;28;20546;-77
2023/12/17 10:27:33;;;;;;;2.30;2.10;;;18.90;68.20;;;;;;5048720;28;20442;-76
2023/12/17 10:30:01;;;;;;;2.70;2.50;;;19.00;68.60;;;;;;5047764;28;20450;-76
2023/12/17 10:32:29;;;;;;;2.70;2.50;;;19.00;68.30;;;;;;5056426;28;20498;-76
2023/12/17 10:34:58;;;;;;;3.00;2.10;;;19.00;68.00;;;;;;5052307;28;20482;-76
2023/12/17 10:37:26;;;;;;;2.63;2.37;;;19.00;68.00;;;;;;5043111;28;20449;-76
2023/12/17 10:39:56;;;;;;;2.00;1.90;;;19.00;67.80;;;;;;5052169;28;20451;-76
2023/12/17 10:42:24;;;;;;;2.70;2.50;;;19.10;68.20;;;;;;5055972;28;20442;-76
2023/12/17 10:44:54;;;;;;;2.27;2.17;;;19.10;67.60;;;;;;5052337;28;20505;-76
2023/12/17 10:47:22;;;;;;;2.70;2.50;;;19.20;68.20;;;;;;5045686;28;20438;-76
2023/12/17 10:49:51;;;;;;;2.60;2.40;;;19.30;68.00;;;;;;5047722;28;20464;-76
2023/12/17 10:52:19;;;;;;;2.30;2.20;;;19.30;67.50;;;;;;5055811;28;20431;-77
2023/12/17 10:54:46;;;;;;;2.97;2.77;;;19.30;67.70;;;;;;5053893;28;20466;-77
2023/12/17 10:57:16;;;;;;;2.73;2.23;;;19.30;67.80;;;;;;5055825;28;20560;-77
2023/12/17 10:59:45;;;;;;;2.67;2.23;;;19.40;67.70;;;;;;5050738;28;20506;-76
2023/12/17 11:02:15;;;;;;;2.97;2.40;;;19.30;67.50;;;;;;5060691;28;20430;-77
2023/12/17 11:04:45;;;;;;;4.67;2.90;;;19.30;67.60;;;;;;5053027;28;20545;-77
2023/12/17 11:07:17;;;;;;;3.53;2.60;;;19.40;67.70;;;;;;5067355;28;20424;-77
2023/12/17 11:10:01;;;;;;;2.80;2.60;;;19.40;67.50;;;;;;5054208;28;20423;-77
2023/12/17 11:12:29;;;;;;;3.13;2.90;;;19.40;67.40;;;;;;5054276;28;20471;-77
2023/12/17 11:14:59;;;;;;;2.93;2.60;;;19.40;67.50;;;;;;5049705;28;20470;-77
2023/12/17 11:17:28;;;;;;;3.00;2.80;;;19.40;67.40;;;;;;5054138;28;20475;-77
2023/12/17 11:19:57;;;;;;;3.07;2.77;;;19.40;67.30;;;;;;5056679;28;20465;-78
2023/12/17 11:22:25;;;;;;;3.53;3.23;;;19.40;67.30;;;;;;5056421;28;20557;-77
2023/12/17 11:24:54;;;;;;;5.37;3.30;;;19.40;67.20;;;;;;5049675;28;20455;-78
2023/12/17 11:27:22;;;;;;;4.17;3.50;;;19.40;67.10;;;;;;5055474;28;20537;-79
2023/12/17 11:29:51;;;;;;;4.57;3.20;;;19.40;67.10;;;;;;5050317;28;20442;-78
2023/12/17 11:32:21;;;;;;;4.23;3.83;;;19.40;67.30;;;;;;5055348;28;20453;-78
2023/12/17 11:34:50;;;;;;;5.07;3.70;;;19.50;67.30;;;;;;5058100;28;20485;-78
2023/12/17 11:37:19;;;;;;;4.33;3.93;;;19.50;67.00;;;;;;5053683;28;20440;-78
2023/12/17 11:39:48;;;;;;;4.73;4.30;;;19.50;66.80;;;;;;5055989;28;20504;-78
2023/12/17 11:42:17;;;;;;;6.50;4.30;;;19.50;66.80;;;;;;5055800;28;20524;-78
2023/12/17 11:44:45;;;;;;;5.00;4.30;;;19.50;67.00;;;;;;5048912;28;20535;-78
2023/12/17 11:47:14;;;;;;;4.67;4.27;;;19.50;66.60;;;;;;5054352;28;20451;-79
2023/12/17 11:49:42;;;;;;;4.73;4.33;;;19.50;66.80;;;;;;5055292;28;20438;-77
2023/12/17 11:52:13;;;;;;;5.40;4.90;;;19.50;66.50;;;;;;5053653;28;20438;-78
2023/12/17 11:54:42;;;;;;;4.70;4.20;;;19.40;66.60;;;;;;5048797;28;20550;-79
2023/12/17 11:57:22;;;;;;;4.53;4.13;;;19.50;66.80;;;;;;5067473;28;20491;-77
2023/12/17 11:59:51;;;;;;;5.70;5.13;;;19.50;66.50;;;;;;5038162;28;20480;-76
2023/12/17 12:02:19;;;;;;;6.67;5.40;;;19.50;66.60;;;;;;5050429;28;20469;-75
2023/12/17 12:04:47;;;;;;;6.07;5.37;;;19.50;66.40;;;;;;5051969;28;20497;-77
2023/12/17 12:07:18;;;;;;;7.33;5.63;;;19.50;65.90;;;;;;5052624;28;20541;-77
2023/12/17 12:09:46;;;;;;;7.10;5.47;;;19.60;65.90;;;;;;5044370;28;20451;-77
2023/12/17 12:12:17;;;;;;;7.73;5.60;;;19.50;65.70;;;;;;5055170;28;20439;-77
2023/12/17 12:14:46;;;;;;;7.90;5.97;;;19.50;65.60;;;;;;5053810;28;20459;-77
2023/12/17 12:17:39;;;;;;;7.60;5.80;;;19.50;65.90;;;;;;5043910;28;20453;-77
2023/12/17 12:20:10;;;;;;;6.50;4.93;;;19.50;65.90;;;;;;5053425;28;20441;-75
2023/12/17 12:22:41;;;;;;;6.00;5.17;;;19.50;65.50;;;;;;5052676;28;20474;-75
2023/12/17 12:25:11;;;;;;;6.50;5.60;;;19.50;65.60;;;;;;5063520;28;20820;-75
2023/12/17 12:27:39;;;;;;;9.63;5.50;;;19.50;65.10;;;;;;5046805;28;20474;-77
2023/12/17 12:30:09;;;;;;;6.80;5.50;;;19.50;65.30;;;;;;5048936;28;20513;-76
2023/12/17 12:32:37;;;;;;;13.63;6.33;;;19.50;65.30;;;;;;5040269;28;20542;-75
2023/12/17 12:35:11;;;;;;;15.50;9.57;;;19.40;65.50;;;;;;5051015;28;20459;-75
2023/12/17 12:37:40;;;;;;;13.67;9.23;;;17.20;61.40;;;;;;5048284;28;20474;-77
2023/12/17 12:40:09;;;;;;;21.87;10.67;;;15.30;67.90;;;;;;5048988;28;20481;-77
2023/12/17 12:42:39;;;;;;;18.80;10.90;;;14.30;72.10;;;;;;5062697;28;20445;-80
2023/12/17 12:45:10;;;;;;;24.90;10.47;;;14.10;75.70;;;;;;5048218;28;20512;-79
2023/12/17 12:47:38;;;;;;;19.80;10.10;;;13.50;77.40;;;;;;5051788;28;20446;-78
2023/12/17 12:50:09;;;;;;;25.23;12.20;;;13.10;80.90;;;;;;5059063;28;20477;-77
2023/12/17 12:52:37;;;;;;;22.13;12.70;;;13.10;83.30;;;;;;5050526;28;20500;-78